Terminal Aerodrome Forecast
Issued by NWS Shreveport, LA

Home | Current Version | Previous Version | Text Only | Print | Product List | Glossary On
Versions: 1 2 3 4 5 6 7 8 9 10 11 12 13 14
000
FTUS44 KSHV 241700
TAFLFK
TAF
KLFK 241738Z 2418/2518 VRB05KT P6SM SKC
     FM250200 09002KT P6SM SKC
     FM251100 00000KT 4SM BR FEW250
     FM251500 19004KT P6SM FEW250=

USA.gov is the U.S. government's official web portal to all federal, state and local government web resources and services.